Magnet, Nebraska
Current Conditions -  °F | °C
As of 4:35 PM on Wednesday 22 Oct 2014 (Local Time) from KLCG Reporting Station
Light Rain Light Rain  
Wind Chill: 63°   Ceiling: 6000
Heat Index: 63°   Visibility: 5mi
Dew Point: 60°   Wind: 14mph
Humidity: 91%   Direction: 280°W
Pressure: 29.99"   Gusts: NA
Location:  42.46°N, 97.47°W
Report Text: KLCG 222135Z AUTO 28012KT 5SM -RA SCT021 BKN060 OVC090 17/16 A2999 RMK AO2 P0011 T01700156
Loading
Personal Weather Stations






























Interactive Weather Map
Tropical Storm Tracking
New forecast layout! Learn more

10-Day Weather Forecast

Advertisements
Track Severe Weather on mobile